sensor_id;sensor_type;location;lat;lon;timestamp;P1;durP1;ratioP1;P2;durP2;ratioP2
51288;SDS011;37372;52.294;5.152;2023-05-07T00:00:18;66.68;;;40.40;;
51288;SDS011;37372;52.294;5.152;2023-05-07T00:02:47;61.08;;;39.05;;
51288;SDS011;37372;52.294;5.152;2023-05-07T00:05:13;61.95;;;38.97;;
51288;SDS011;37372;52.294;5.152;2023-05-07T00:07:47;55.42;;;39.25;;
51288;SDS011;37372;52.294;5.152;2023-05-07T00:10:19;62.90;;;38.65;;
51288;SDS011;37372;52.294;5.152;2023-05-07T00:12:50;63.22;;;41.00;;
51288;SDS011;37372;52.294;5.152;2023-05-07T00:15:17;59.28;;;38.28;;
51288;SDS011;37372;52.294;5.152;2023-05-07T00:17:48;62.80;;;40.47;;
51288;SDS011;37372;52.294;5.152;2023-05-07T00:20:13;69.22;;;40.92;;
51288;SDS011;37372;52.294;5.152;2023-05-07T00:22:41;61.03;;;42.00;;
51288;SDS011;37372;52.294;5.152;2023-05-07T00:25:07;76.30;;;42.50;;
51288;SDS011;37372;52.294;5.152;2023-05-07T00:27:33;74.78;;;43.50;;
51288;SDS011;37372;52.294;5.152;2023-05-07T00:30:11;74.55;;;43.88;;
51288;SDS011;37372;52.294;5.152;2023-05-07T00:32:37;75.28;;;41.45;;
51288;SDS011;37372;52.294;5.152;2023-05-07T00:35:05;77.22;;;42.92;;
51288;SDS011;37372;52.294;5.152;2023-05-07T00:37:32;63.42;;;39.30;;
51288;SDS011;37372;52.294;5.152;2023-05-07T00:39:58;64.25;;;40.20;;
51288;SDS011;37372;52.294;5.152;2023-05-07T00:42:24;69.47;;;41.28;;
51288;SDS011;37372;52.294;5.152;2023-05-07T00:44:49;67.28;;;40.45;;
51288;SDS011;37372;52.294;5.152;2023-05-07T00:47:15;68.47;;;39.55;;
51288;SDS011;37372;52.294;5.152;2023-05-07T00:49:44;63.00;;;37.50;;
51288;SDS011;37372;52.294;5.152;2023-05-07T00:52:11;62.08;;;40.63;;
51288;SDS011;37372;52.294;5.152;2023-05-07T00:54:43;61.80;;;38.78;;
51288;SDS011;37372;52.294;5.152;2023-05-07T00:57:13;57.10;;;37.15;;
51288;SDS011;37372;52.294;5.152;2023-05-07T00:59:40;60.53;;;36.67;;
51288;SDS011;37372;52.294;5.152;2023-05-07T01:02:14;55.00;;;36.75;;
51288;SDS011;37372;52.294;5.152;2023-05-07T01:04:39;53.58;;;36.67;;
51288;SDS011;37372;52.294;5.152;2023-05-07T01:07:05;51.85;;;36.85;;
51288;SDS011;37372;52.294;5.152;2023-05-07T01:09:37;49.22;;;34.67;;
51288;SDS011;37372;52.294;5.152;2023-05-07T01:12:04;46.70;;;33.65;;
51288;SDS011;37372;52.294;5.152;2023-05-07T01:14:31;46.15;;;32.15;;
51288;SDS011;37372;52.294;5.152;2023-05-07T01:16:58;44.10;;;32.85;;
51288;SDS011;37372;52.294;5.152;2023-05-07T01:19:26;51.15;;;32.53;;
51288;SDS011;37372;52.294;5.152;2023-05-07T01:21:55;40.70;;;30.85;;
51288;SDS011;37372;52.294;5.152;2023-05-07T01:24:32;41.13;;;29.00;;
51288;SDS011;37372;52.294;5.152;2023-05-07T01:26:58;35.80;;;28.58;;
51288;SDS011;37372;52.294;5.152;2023-05-07T01:29:39;37.58;;;28.40;;
51288;SDS011;37372;52.294;5.152;2023-05-07T01:32:05;36.40;;;27.65;;
51288;SDS011;37372;52.294;5.152;2023-05-07T01:34:32;36.90;;;25.58;;
51288;SDS011;37372;52.294;5.152;2023-05-07T01:37:00;32.15;;;25.80;;
51288;SDS011;37372;52.294;5.152;2023-05-07T01:39:26;37.42;;;25.48;;
51288;SDS011;37372;52.294;5.152;2023-05-07T01:41:54;28.88;;;24.00;;
51288;SDS011;37372;52.294;5.152;2023-05-07T01:44:22;30.95;;;24.75;;
51288;SDS011;37372;52.294;5.152;2023-05-07T01:46:48;35.72;;;24.75;;
51288;SDS011;37372;52.294;5.152;2023-05-07T01:49:15;35.22;;;23.55;;
51288;SDS011;37372;52.294;5.152;2023-05-07T01:51:41;27.60;;;22.83;;
51288;SDS011;37372;52.294;5.152;2023-05-07T01:54:08;26.38;;;21.17;;
51288;SDS011;37372;52.294;5.152;2023-05-07T01:56:34;30.70;;;22.88;;
51288;SDS011;37372;52.294;5.152;2023-05-07T01:59:00;28.45;;;21.67;;
51288;SDS011;37372;52.294;5.152;2023-05-07T02:01:25;25.17;;;21.30;;
51288;SDS011;37372;52.294;5.152;2023-05-07T02:03:50;27.27;;;21.90;;
51288;SDS011;37372;52.294;5.152;2023-05-07T02:06:16;29.05;;;22.23;;
51288;SDS011;37372;52.294;5.152;2023-05-07T02:08:42;25.67;;;21.83;;
51288;SDS011;37372;52.294;5.152;2023-05-07T02:11:11;27.33;;;23.00;;
51288;SDS011;37372;52.294;5.152;2023-05-07T02:13:40;29.63;;;22.05;;
51288;SDS011;37372;52.294;5.152;2023-05-07T02:16:06;27.52;;;22.15;;
51288;SDS011;37372;52.294;5.152;2023-05-07T02:18:32;29.52;;;23.42;;
51288;SDS011;37372;52.294;5.152;2023-05-07T02:20:57;30.20;;;23.13;;
51288;SDS011;37372;52.294;5.152;2023-05-07T02:23:23;30.42;;;22.75;;
51288;SDS011;37372;52.294;5.152;2023-05-07T02:25:49;26.95;;;22.63;;
51288;SDS011;37372;52.294;5.152;2023-05-07T02:28:17;27.20;;;22.25;;
51288;SDS011;37372;52.294;5.152;2023-05-07T02:30:45;34.40;;;24.92;;
51288;SDS011;37372;52.294;5.152;2023-05-07T02:33:18;31.40;;;23.45;;
51288;SDS011;37372;52.294;5.152;2023-05-07T02:35:44;28.83;;;23.08;;
51288;SDS011;37372;52.294;5.152;2023-05-07T02:38:24;28.15;;;22.38;;
51288;SDS011;37372;52.294;5.152;2023-05-07T02:40:50;33.28;;;22.77;;
51288;SDS011;37372;52.294;5.152;2023-05-07T02:43:17;30.00;;;23.98;;
51288;SDS011;37372;52.294;5.152;2023-05-07T02:45:43;27.88;;;23.30;;
51288;SDS011;37372;52.294;5.152;2023-05-07T02:48:08;28.20;;;22.20;;
51288;SDS011;37372;52.294;5.152;2023-05-07T02:50:34;30.63;;;21.05;;
51288;SDS011;37372;52.294;5.152;2023-05-07T02:53:00;33.47;;;22.73;;
51288;SDS011;37372;52.294;5.152;2023-05-07T02:55:26;27.63;;;22.10;;
51288;SDS011;37372;52.294;5.152;2023-05-07T02:57:51;27.42;;;22.60;;
51288;SDS011;37372;52.294;5.152;2023-05-07T03:00:17;26.85;;;20.83;;
51288;SDS011;37372;52.294;5.152;2023-05-07T03:02:54;27.45;;;22.15;;
51288;SDS011;37372;52.294;5.152;2023-05-07T03:05:20;27.20;;;21.42;;
51288;SDS011;37372;52.294;5.152;2023-05-07T03:07:48;30.92;;;23.58;;
51288;SDS011;37372;52.294;5.152;2023-05-07T03:10:14;28.50;;;22.45;;
51288;SDS011;37372;52.294;5.152;2023-05-07T03:12:40;28.17;;;23.23;;
51288;SDS011;37372;52.294;5.152;2023-05-07T03:15:05;32.38;;;23.20;;
51288;SDS011;37372;52.294;5.152;2023-05-07T03:18:00;28.47;;;22.03;;
51288;SDS011;37372;52.294;5.152;2023-05-07T03:20:27;36.38;;;22.85;;
51288;SDS011;37372;52.294;5.152;2023-05-07T03:22:53;29.77;;;21.38;;
51288;SDS011;37372;52.294;5.152;2023-05-07T03:25:18;28.92;;;23.05;;
51288;SDS011;37372;52.294;5.152;2023-05-07T03:27:44;31.02;;;23.13;;
51288;SDS011;37372;52.294;5.152;2023-05-07T03:30:19;33.47;;;23.10;;
51288;SDS011;37372;52.294;5.152;2023-05-07T03:32:45;30.75;;;23.08;;
51288;SDS011;37372;52.294;5.152;2023-05-07T03:35:10;29.58;;;22.20;;
51288;SDS011;37372;52.294;5.152;2023-05-07T03:37:43;29.02;;;23.15;;
51288;SDS011;37372;52.294;5.152;2023-05-07T03:40:08;33.13;;;22.38;;
51288;SDS011;37372;52.294;5.152;2023-05-07T03:42:35;29.48;;;22.38;;
51288;SDS011;37372;52.294;5.152;2023-05-07T03:45:01;32.25;;;22.10;;
51288;SDS011;37372;52.294;5.152;2023-05-07T03:47:27;27.23;;;22.65;;
51288;SDS011;37372;52.294;5.152;2023-05-07T03:49:52;29.13;;;22.55;;
51288;SDS011;37372;52.294;5.152;2023-05-07T03:52:19;27.83;;;21.40;;
51288;SDS011;37372;52.294;5.152;2023-05-07T03:54:49;29.38;;;22.05;;
51288;SDS011;37372;52.294;5.152;2023-05-07T03:57:15;29.40;;;23.67;;
51288;SDS011;37372;52.294;5.152;2023-05-07T03:59:40;29.00;;;22.60;;
51288;SDS011;37372;52.294;5.152;2023-05-07T04:02:06;28.52;;;21.48;;
51288;SDS011;37372;52.294;5.152;2023-05-07T04:04:31;26.98;;;21.73;;
51288;SDS011;37372;52.294;5.152;2023-05-07T04:06:57;29.80;;;23.00;;
51288;SDS011;37372;52.294;5.152;2023-05-07T04:09:24;25.80;;;21.38;;
51288;SDS011;37372;52.294;5.152;2023-05-07T04:11:50;29.20;;;22.50;;
51288;SDS011;37372;52.294;5.152;2023-05-07T04:14:15;28.02;;;22.67;;
51288;SDS011;37372;52.294;5.152;2023-05-07T04:16:41;28.63;;;23.92;;
51288;SDS011;37372;52.294;5.152;2023-05-07T04:19:06;29.02;;;23.58;;
51288;SDS011;37372;52.294;5.152;2023-05-07T04:21:31;34.60;;;25.08;;
51288;SDS011;37372;52.294;5.152;2023-05-07T04:23:57;30.20;;;23.70;;
51288;SDS011;37372;52.294;5.152;2023-05-07T04:26:23;28.83;;;23.35;;
51288;SDS011;37372;52.294;5.152;2023-05-07T04:28:49;30.73;;;25.45;;
51288;SDS011;37372;52.294;5.152;2023-05-07T04:31:15;30.02;;;23.33;;
51288;SDS011;37372;52.294;5.152;2023-05-07T04:33:42;30.02;;;24.42;;
51288;SDS011;37372;52.294;5.152;2023-05-07T04:36:30;31.30;;;24.83;;
51288;SDS011;37372;52.294;5.152;2023-05-07T04:38:58;32.72;;;24.25;;
51288;SDS011;37372;52.294;5.152;2023-05-07T04:41:23;33.30;;;24.42;;
51288;SDS011;37372;52.294;5.152;2023-05-07T04:43:49;32.75;;;23.63;;
51288;SDS011;37372;52.294;5.152;2023-05-07T04:46:16;30.77;;;24.42;;
51288;SDS011;37372;52.294;5.152;2023-05-07T04:48:49;29.45;;;23.50;;
51288;SDS011;37372;52.294;5.152;2023-05-07T04:51:18;33.55;;;25.05;;
51288;SDS011;37372;52.294;5.152;2023-05-07T04:53:45;32.22;;;23.67;;
51288;SDS011;37372;52.294;5.152;2023-05-07T04:56:13;30.90;;;24.10;;
51288;SDS011;37372;52.294;5.152;2023-05-07T04:58:55;29.92;;;23.77;;
51288;SDS011;37372;52.294;5.152;2023-05-07T05:01:20;27.90;;;22.65;;
51288;SDS011;37372;52.294;5.152;2023-05-07T05:03:47;31.33;;;22.00;;
51288;SDS011;37372;52.294;5.152;2023-05-07T05:06:26;29.50;;;22.92;;
51288;SDS011;37372;52.294;5.152;2023-05-07T05:08:52;32.33;;;21.83;;
51288;SDS011;37372;52.294;5.152;2023-05-07T05:11:19;27.30;;;21.75;;
51288;SDS011;37372;52.294;5.152;2023-05-07T05:13:52;28.70;;;22.33;;
51288;SDS011;37372;52.294;5.152;2023-05-07T05:16:22;32.45;;;22.67;;
51288;SDS011;37372;52.294;5.152;2023-05-07T05:18:55;32.97;;;23.13;;
51288;SDS011;37372;52.294;5.152;2023-05-07T05:21:26;30.98;;;23.08;;
51288;SDS011;37372;52.294;5.152;2023-05-07T05:23:55;31.05;;;22.58;;
51288;SDS011;37372;52.294;5.152;2023-05-07T05:26:22;29.38;;;22.90;;
51288;SDS011;37372;52.294;5.152;2023-05-07T05:28:54;31.20;;;22.30;;
51288;SDS011;37372;52.294;5.152;2023-05-07T05:31:21;23.10;;;18.88;;
51288;SDS011;37372;52.294;5.152;2023-05-07T05:33:55;24.65;;;19.65;;
51288;SDS011;37372;52.294;5.152;2023-05-07T05:36:24;28.13;;;20.65;;
51288;SDS011;37372;52.294;5.152;2023-05-07T05:38:53;27.45;;;20.65;;
51288;SDS011;37372;52.294;5.152;2023-05-07T05:41:21;25.83;;;20.80;;
51288;SDS011;37372;52.294;5.152;2023-05-07T05:43:55;28.88;;;21.25;;
51288;SDS011;37372;52.294;5.152;2023-05-07T05:46:21;23.63;;;20.63;;
51288;SDS011;37372;52.294;5.152;2023-05-07T05:48:58;27.30;;;20.85;;
51288;SDS011;37372;52.294;5.152;2023-05-07T05:51:26;36.42;;;21.58;;
51288;SDS011;37372;52.294;5.152;2023-05-07T05:54:06;27.33;;;20.38;;
51288;SDS011;37372;52.294;5.152;2023-05-07T05:56:33;28.90;;;22.25;;
51288;SDS011;37372;52.294;5.152;2023-05-07T05:59:04;25.48;;;20.55;;
51288;SDS011;37372;52.294;5.152;2023-05-07T06:01:39;25.75;;;20.33;;
51288;SDS011;37372;52.294;5.152;2023-05-07T06:04:05;29.35;;;21.05;;
51288;SDS011;37372;52.294;5.152;2023-05-07T06:06:37;29.80;;;22.60;;
51288;SDS011;37372;52.294;5.152;2023-05-07T06:09:03;33.20;;;24.33;;
51288;SDS011;37372;52.294;5.152;2023-05-07T06:11:32;30.65;;;23.95;;
51288;SDS011;37372;52.294;5.152;2023-05-07T06:14:02;30.35;;;23.65;;
51288;SDS011;37372;52.294;5.152;2023-05-07T06:16:28;31.67;;;24.85;;
51288;SDS011;37372;52.294;5.152;2023-05-07T06:19:07;31.92;;;23.65;;
51288;SDS011;37372;52.294;5.152;2023-05-07T06:21:33;35.13;;;26.50;;
51288;SDS011;37372;52.294;5.152;2023-05-07T06:24:01;33.88;;;26.05;;
51288;SDS011;37372;52.294;5.152;2023-05-07T06:26:26;38.97;;;25.15;;
51288;SDS011;37372;52.294;5.152;2023-05-07T06:28:52;39.50;;;27.35;;
51288;SDS011;37372;52.294;5.152;2023-05-07T06:31:18;32.40;;;25.15;;
51288;SDS011;37372;52.294;5.152;2023-05-07T06:33:57;35.25;;;26.40;;
51288;SDS011;37372;52.294;5.152;2023-05-07T06:36:27;32.45;;;25.63;;
51288;SDS011;37372;52.294;5.152;2023-05-07T06:38:52;32.20;;;24.80;;
51288;SDS011;37372;52.294;5.152;2023-05-07T06:41:18;34.65;;;25.42;;
51288;SDS011;37372;52.294;5.152;2023-05-07T06:43:43;30.25;;;24.35;;
51288;SDS011;37372;52.294;5.152;2023-05-07T06:46:09;28.17;;;24.20;;
51288;SDS011;37372;52.294;5.152;2023-05-07T06:48:34;32.28;;;25.33;;
51288;SDS011;37372;52.294;5.152;2023-05-07T06:51:00;32.42;;;24.80;;
51288;SDS011;37372;52.294;5.152;2023-05-07T06:53:25;31.38;;;25.67;;
51288;SDS011;37372;52.294;5.152;2023-05-07T06:56:00;30.52;;;24.30;;
51288;SDS011;37372;52.294;5.152;2023-05-07T06:58:26;27.38;;;22.17;;
51288;SDS011;37372;52.294;5.152;2023-05-07T07:00:51;29.02;;;23.67;;
51288;SDS011;37372;52.294;5.152;2023-05-07T07:03:23;29.52;;;23.30;;
51288;SDS011;37372;52.294;5.152;2023-05-07T07:05:53;30.50;;;21.73;;
51288;SDS011;37372;52.294;5.152;2023-05-07T07:08:28;33.13;;;24.25;;
51288;SDS011;37372;52.294;5.152;2023-05-07T07:10:53;29.00;;;22.60;;
51288;SDS011;37372;52.294;5.152;2023-05-07T07:13:28;32.80;;;24.48;;
51288;SDS011;37372;52.294;5.152;2023-05-07T07:15:54;30.55;;;24.17;;
51288;SDS011;37372;52.294;5.152;2023-05-07T07:18:19;28.15;;;23.40;;
51288;SDS011;37372;52.294;5.152;2023-05-07T07:20:46;28.30;;;22.80;;
51288;SDS011;37372;52.294;5.152;2023-05-07T07:23:15;29.52;;;23.30;;
51288;SDS011;37372;52.294;5.152;2023-05-07T07:25:41;30.23;;;22.95;;
51288;SDS011;37372;52.294;5.152;2023-05-07T07:28:07;27.90;;;22.23;;
51288;SDS011;37372;52.294;5.152;2023-05-07T07:30:32;26.30;;;21.60;;
51288;SDS011;37372;52.294;5.152;2023-05-07T07:32:58;23.98;;;20.88;;
51288;SDS011;37372;52.294;5.152;2023-05-07T07:35:31;26.05;;;21.67;;
51288;SDS011;37372;52.294;5.152;2023-05-07T07:37:57;26.88;;;21.30;;
51288;SDS011;37372;52.294;5.152;2023-05-07T07:40:23;28.20;;;21.77;;
51288;SDS011;37372;52.294;5.152;2023-05-07T07:42:53;29.23;;;22.52;;
51288;SDS011;37372;52.294;5.152;2023-05-07T07:45:19;24.65;;;21.95;;
51288;SDS011;37372;52.294;5.152;2023-05-07T07:47:47;27.60;;;21.50;;
51288;SDS011;37372;52.294;5.152;2023-05-07T07:50:13;25.88;;;20.73;;
51288;SDS011;37372;52.294;5.152;2023-05-07T07:52:39;25.33;;;20.85;;
51288;SDS011;37372;52.294;5.152;2023-05-07T07:55:05;24.15;;;21.30;;
51288;SDS011;37372;52.294;5.152;2023-05-07T07:57:32;26.58;;;21.75;;
51288;SDS011;37372;52.294;5.152;2023-05-07T07:59:57;25.13;;;21.80;;
51288;SDS011;37372;52.294;5.152;2023-05-07T08:02:23;25.98;;;21.10;;
51288;SDS011;37372;52.294;5.152;2023-05-07T08:04:49;24.60;;;21.13;;
51288;SDS011;37372;52.294;5.152;2023-05-07T08:07:18;26.48;;;21.65;;
51288;SDS011;37372;52.294;5.152;2023-05-07T08:09:45;21.95;;;19.65;;
51288;SDS011;37372;52.294;5.152;2023-05-07T08:12:12;24.33;;;19.90;;
51288;SDS011;37372;52.294;5.152;2023-05-07T08:14:39;22.92;;;19.58;;
51288;SDS011;37372;52.294;5.152;2023-05-07T08:17:04;22.88;;;19.77;;
51288;SDS011;37372;52.294;5.152;2023-05-07T08:19:31;20.75;;;18.55;;
51288;SDS011;37372;52.294;5.152;2023-05-07T08:21:57;20.65;;;18.45;;
51288;SDS011;37372;52.294;5.152;2023-05-07T08:24:27;20.80;;;18.13;;
51288;SDS011;37372;52.294;5.152;2023-05-07T08:26:52;22.70;;;20.25;;
51288;SDS011;37372;52.294;5.152;2023-05-07T08:29:17;24.35;;;18.08;;
51288;SDS011;37372;52.294;5.152;2023-05-07T08:31:46;20.30;;;17.45;;
51288;SDS011;37372;52.294;5.152;2023-05-07T08:34:12;20.35;;;18.13;;
51288;SDS011;37372;52.294;5.152;2023-05-07T08:36:44;21.33;;;18.45;;
51288;SDS011;37372;52.294;5.152;2023-05-07T08:39:12;21.23;;;18.77;;
51288;SDS011;37372;52.294;5.152;2023-05-07T08:41:38;25.10;;;19.10;;
51288;SDS011;37372;52.294;5.152;2023-05-07T08:44:05;21.05;;;18.50;;
51288;SDS011;37372;52.294;5.152;2023-05-07T08:46:36;23.73;;;19.85;;
51288;SDS011;37372;52.294;5.152;2023-05-07T08:49:02;24.80;;;20.25;;
51288;SDS011;37372;52.294;5.152;2023-05-07T08:51:28;21.50;;;19.20;;
51288;SDS011;37372;52.294;5.152;2023-05-07T08:53:54;24.85;;;20.60;;
51288;SDS011;37372;52.294;5.152;2023-05-07T08:56:21;24.58;;;20.67;;
51288;SDS011;37372;52.294;5.152;2023-05-07T08:58:53;22.27;;;18.17;;
51288;SDS011;37372;52.294;5.152;2023-05-07T09:01:23;18.33;;;16.42;;
51288;SDS011;37372;52.294;5.152;2023-05-07T09:03:50;24.30;;;18.23;;
51288;SDS011;37372;52.294;5.152;2023-05-07T09:06:23;20.65;;;18.45;;
51288;SDS011;37372;52.294;5.152;2023-05-07T09:08:49;24.08;;;19.45;;
51288;SDS011;37372;52.294;5.152;2023-05-07T09:11:16;22.52;;;19.88;;
51288;SDS011;37372;52.294;5.152;2023-05-07T09:13:54;22.52;;;18.20;;
51288;SDS011;37372;52.294;5.152;2023-05-07T09:16:26;24.05;;;20.25;;
51288;SDS011;37372;52.294;5.152;2023-05-07T09:18:56;22.70;;;20.17;;
51288;SDS011;37372;52.294;5.152;2023-05-07T09:21:44;23.52;;;20.02;;
51288;SDS011;37372;52.294;5.152;2023-05-07T09:24:09;22.80;;;20.50;;
51288;SDS011;37372;52.294;5.152;2023-05-07T09:26:35;22.00;;;19.70;;
51288;SDS011;37372;52.294;5.152;2023-05-07T09:29:00;23.83;;;21.35;;
51288;SDS011;37372;52.294;5.152;2023-05-07T09:31:27;27.75;;;22.52;;
51288;SDS011;37372;52.294;5.152;2023-05-07T09:33:53;23.88;;;21.35;;
51288;SDS011;37372;52.294;5.152;2023-05-07T09:36:20;22.10;;;19.73;;
51288;SDS011;37372;52.294;5.152;2023-05-07T09:38:46;23.30;;;20.30;;
51288;SDS011;37372;52.294;5.152;2023-05-07T09:41:12;23.13;;;19.83;;
51288;SDS011;37372;52.294;5.152;2023-05-07T09:43:39;20.70;;;18.60;;
51288;SDS011;37372;52.294;5.152;2023-05-07T09:46:12;19.40;;;17.25;;
51288;SDS011;37372;52.294;5.152;2023-05-07T09:48:47;16.23;;;14.48;;
51288;SDS011;37372;52.294;5.152;2023-05-07T09:56:15;21.52;;;14.27;;
51288;SDS011;37372;52.294;5.152;2023-05-07T09:58:42;17.00;;;15.13;;
51288;SDS011;37372;52.294;5.152;2023-05-07T10:01:10;16.85;;;14.50;;
51288;SDS011;37372;52.294;5.152;2023-05-07T10:03:41;17.50;;;15.60;;
51288;SDS011;37372;52.294;5.152;2023-05-07T10:06:10;18.55;;;15.35;;
51288;SDS011;37372;52.294;5.152;2023-05-07T10:08:41;16.90;;;15.00;;
51288;SDS011;37372;52.294;5.152;2023-05-07T10:11:08;19.25;;;14.70;;
51288;SDS011;37372;52.294;5.152;2023-05-07T10:13:37;15.45;;;13.85;;
51288;SDS011;37372;52.294;5.152;2023-05-07T10:16:03;17.10;;;14.05;;
51288;SDS011;37372;52.294;5.152;2023-05-07T10:18:49;16.17;;;12.90;;
51288;SDS011;37372;52.294;5.152;2023-05-07T10:21:17;15.98;;;13.35;;
51288;SDS011;37372;52.294;5.152;2023-05-07T10:23:45;14.70;;;12.43;;
51288;SDS011;37372;52.294;5.152;2023-05-07T10:26:14;16.80;;;11.98;;
51288;SDS011;37372;52.294;5.152;2023-05-07T10:28:41;16.63;;;13.98;;
51288;SDS011;37372;52.294;5.152;2023-05-07T10:34:23;14.77;;;11.80;;
51288;SDS011;37372;52.294;5.152;2023-05-07T10:36:51;13.43;;;11.25;;
51288;SDS011;37372;52.294;5.152;2023-05-07T10:39:19;13.80;;;11.45;;
51288;SDS011;37372;52.294;5.152;2023-05-07T10:41:46;13.80;;;10.93;;
51288;SDS011;37372;52.294;5.152;2023-05-07T10:44:11;13.05;;;10.70;;
51288;SDS011;37372;52.294;5.152;2023-05-07T10:47:03;13.60;;;11.05;;
51288;SDS011;37372;52.294;5.152;2023-05-07T10:49:34;13.85;;;10.23;;
51288;SDS011;37372;52.294;5.152;2023-05-07T10:52:20;13.00;;;9.15;;
51288;SDS011;37372;52.294;5.152;2023-05-07T10:57:42;12.00;;;8.32;;
51288;SDS011;37372;52.294;5.152;2023-05-07T11:00:56;11.10;;;8.38;;
51288;SDS011;37372;52.294;5.152;2023-05-07T11:05:29;9.70;;;7.18;;
51288;SDS011;37372;52.294;5.152;2023-05-07T11:08:00;12.03;;;7.40;;
51288;SDS011;37372;52.294;5.152;2023-05-07T11:13:16;11.00;;;7.07;;
51288;SDS011;37372;52.294;5.152;2023-05-07T11:15:46;12.55;;;7.13;;
51288;SDS011;37372;52.294;5.152;2023-05-07T11:18:15;10.27;;;5.68;;
51288;SDS011;37372;52.294;5.152;2023-05-07T11:28:29;8.00;;;5.13;;
51288;SDS011;37372;52.294;5.152;2023-05-07T11:30:56;10.70;;;4.60;;
51288;SDS011;37372;52.294;5.152;2023-05-07T11:33:23;11.90;;;5.30;;
51288;SDS011;37372;52.294;5.152;2023-05-07T11:35:50;9.23;;;5.05;;
51288;SDS011;37372;52.294;5.152;2023-05-07T11:38:18;9.48;;;5.50;;
51288;SDS011;37372;52.294;5.152;2023-05-07T11:40:51;7.93;;;4.38;;
51288;SDS011;37372;52.294;5.152;2023-05-07T11:43:30;8.75;;;5.30;;
51288;SDS011;37372;52.294;5.152;2023-05-07T11:46:17;9.63;;;5.25;;
51288;SDS011;37372;52.294;5.152;2023-05-07T11:48:42;7.75;;;4.00;;
51288;SDS011;37372;52.294;5.152;2023-05-07T11:51:08;6.85;;;2.90;;
51288;SDS011;37372;52.294;5.152;2023-05-07T11:53:42;8.48;;;3.90;;
51288;SDS011;37372;52.294;5.152;2023-05-07T11:56:14;7.88;;;3.15;;
51288;SDS011;37372;52.294;5.152;2023-05-07T11:59:01;5.13;;;2.70;;
51288;SDS011;37372;52.294;5.152;2023-05-07T12:01:26;8.85;;;3.55;;
51288;SDS011;37372;52.294;5.152;2023-05-07T12:04:00;6.68;;;2.42;;
51288;SDS011;37372;52.294;5.152;2023-05-07T12:06:35;5.97;;;2.40;;
51288;SDS011;37372;52.294;5.152;2023-05-07T12:09:12;5.50;;;2.60;;
51288;SDS011;37372;52.294;5.152;2023-05-07T12:11:40;5.63;;;2.80;;
51288;SDS011;37372;52.294;5.152;2023-05-07T12:14:11;7.05;;;3.25;;
51288;SDS011;37372;52.294;5.152;2023-05-07T12:16:36;5.63;;;2.92;;
51288;SDS011;37372;52.294;5.152;2023-05-07T12:19:04;8.43;;;3.70;;
51288;SDS011;37372;52.294;5.152;2023-05-07T12:21:32;6.72;;;2.95;;
51288;SDS011;37372;52.294;5.152;2023-05-07T12:24:01;5.82;;;2.83;;
51288;SDS011;37372;52.294;5.152;2023-05-07T12:26:26;6.57;;;2.60;;
51288;SDS011;37372;52.294;5.152;2023-05-07T12:28:53;7.22;;;2.80;;
51288;SDS011;37372;52.294;5.152;2023-05-07T12:31:18;7.47;;;3.50;;
51288;SDS011;37372;52.294;5.152;2023-05-07T12:33:45;5.88;;;2.80;;
51288;SDS011;37372;52.294;5.152;2023-05-07T12:36:11;5.93;;;3.30;;
51288;SDS011;37372;52.294;5.152;2023-05-07T12:38:40;10.68;;;3.13;;
51288;SDS011;37372;52.294;5.152;2023-05-07T12:41:07;8.35;;;2.58;;
51288;SDS011;37372;52.294;5.152;2023-05-07T12:43:33;5.13;;;2.33;;
51288;SDS011;37372;52.294;5.152;2023-05-07T12:46:01;6.35;;;2.47;;
51288;SDS011;37372;52.294;5.152;2023-05-07T12:48:31;11.07;;;3.03;;
51288;SDS011;37372;52.294;5.152;2023-05-07T12:50:58;6.35;;;2.53;;
51288;SDS011;37372;52.294;5.152;2023-05-07T12:53:26;4.80;;;1.73;;
51288;SDS011;37372;52.294;5.152;2023-05-07T12:55:53;5.88;;;2.60;;
51288;SDS011;37372;52.294;5.152;2023-05-07T12:58:22;4.50;;;2.05;;
51288;SDS011;37372;52.294;5.152;2023-05-07T13:00:53;7.82;;;2.63;;
51288;SDS011;37372;52.294;5.152;2023-05-07T13:03:33;6.53;;;2.53;;
51288;SDS011;37372;52.294;5.152;2023-05-07T13:06:04;7.03;;;3.03;;
51288;SDS011;37372;52.294;5.152;2023-05-07T13:08:32;8.85;;;2.88;;
51288;SDS011;37372;52.294;5.152;2023-05-07T13:11:02;4.40;;;2.22;;
51288;SDS011;37372;52.294;5.152;2023-05-07T13:13:32;7.15;;;2.65;;
51288;SDS011;37372;52.294;5.152;2023-05-07T13:15:58;5.70;;;2.92;;
51288;SDS011;37372;52.294;5.152;2023-05-07T13:18:24;6.90;;;3.65;;
51288;SDS011;37372;52.294;5.152;2023-05-07T13:20:51;9.85;;;2.78;;
51288;SDS011;37372;52.294;5.152;2023-05-07T13:23:18;6.15;;;3.22;;
51288;SDS011;37372;52.294;5.152;2023-05-07T13:25:47;8.07;;;2.92;;
51288;SDS011;37372;52.294;5.152;2023-05-07T13:28:14;7.18;;;3.13;;
51288;SDS011;37372;52.294;5.152;2023-05-07T13:30:40;6.43;;;3.20;;
51288;SDS011;37372;52.294;5.152;2023-05-07T13:33:06;7.20;;;4.13;;
51288;SDS011;37372;52.294;5.152;2023-05-07T13:35:40;7.68;;;3.83;;
51288;SDS011;37372;52.294;5.152;2023-05-07T13:38:06;8.38;;;3.83;;
51288;SDS011;37372;52.294;5.152;2023-05-07T13:40:37;6.07;;;3.63;;
51288;SDS011;37372;52.294;5.152;2023-05-07T13:43:05;6.95;;;4.72;;
51288;SDS011;37372;52.294;5.152;2023-05-07T13:45:37;8.23;;;4.75;;
51288;SDS011;37372;52.294;5.152;2023-05-07T13:48:03;9.23;;;4.25;;
51288;SDS011;37372;52.294;5.152;2023-05-07T13:50:31;11.18;;;4.43;;
51288;SDS011;37372;52.294;5.152;2023-05-07T13:53:01;15.23;;;4.72;;
51288;SDS011;37372;52.294;5.152;2023-05-07T13:55:33;8.73;;;4.78;;
51288;SDS011;37372;52.294;5.152;2023-05-07T13:58:02;7.65;;;4.85;;
51288;SDS011;37372;52.294;5.152;2023-05-07T14:00:35;7.95;;;4.90;;
51288;SDS011;37372;52.294;5.152;2023-05-07T14:03:01;10.13;;;6.07;;
51288;SDS011;37372;52.294;5.152;2023-05-07T14:05:27;8.35;;;5.18;;
51288;SDS011;37372;52.294;5.152;2023-05-07T14:07:54;10.23;;;5.13;;
51288;SDS011;37372;52.294;5.152;2023-05-07T14:10:21;10.60;;;5.43;;
51288;SDS011;37372;52.294;5.152;2023-05-07T14:12:48;9.88;;;5.25;;
51288;SDS011;37372;52.294;5.152;2023-05-07T14:15:14;9.27;;;4.82;;
51288;SDS011;37372;52.294;5.152;2023-05-07T14:17:41;8.48;;;4.68;;
51288;SDS011;37372;52.294;5.152;2023-05-07T14:20:06;10.35;;;6.50;;
51288;SDS011;37372;52.294;5.152;2023-05-07T14:22:32;8.00;;;5.70;;
51288;SDS011;37372;52.294;5.152;2023-05-07T14:24:58;10.20;;;6.80;;
51288;SDS011;37372;52.294;5.152;2023-05-07T14:27:24;10.13;;;6.63;;
51288;SDS011;37372;52.294;5.152;2023-05-07T14:29:51;10.15;;;6.72;;
51288;SDS011;37372;52.294;5.152;2023-05-07T14:32:17;12.02;;;6.78;;
51288;SDS011;37372;52.294;5.152;2023-05-07T14:34:43;11.77;;;5.68;;
51288;SDS011;37372;52.294;5.152;2023-05-07T14:37:10;10.82;;;6.50;;
51288;SDS011;37372;52.294;5.152;2023-05-07T14:39:35;11.45;;;6.28;;
51288;SDS011;37372;52.294;5.152;2023-05-07T14:42:01;10.70;;;6.68;;
51288;SDS011;37372;52.294;5.152;2023-05-07T14:44:29;7.53;;;4.80;;
51288;SDS011;37372;52.294;5.152;2023-05-07T14:46:59;7.30;;;4.85;;
51288;SDS011;37372;52.294;5.152;2023-05-07T14:49:27;6.95;;;3.83;;
51288;SDS011;37372;52.294;5.152;2023-05-07T14:51:53;6.72;;;4.20;;
51288;SDS011;37372;52.294;5.152;2023-05-07T14:54:18;15.05;;;7.68;;
51288;SDS011;37372;52.294;5.152;2023-05-07T14:56:44;21.73;;;10.48;;
51288;SDS011;37372;52.294;5.152;2023-05-07T14:59:10;19.95;;;11.60;;